sensor_id;sensor_type;location;lat;lon;timestamp;P1;P2;P0
49914;PMS5003;35806;47.958;13.158;2023-05-07T00:02:09;10;10;
49914;PMS5003;35806;47.958;13.158;2023-05-07T00:04:36;9;9;
49914;PMS5003;35806;47.958;13.158;2023-05-07T00:07:03;6;6;
49914;PMS5003;35806;47.958;13.158;2023-05-07T00:09:31;8;7;
49914;PMS5003;35806;47.958;13.158;2023-05-07T00:11:59;12;11;
49914;PMS5003;35806;47.958;13.158;2023-05-07T00:14:26;10;10;
49914;PMS5003;35806;47.958;13.158;2023-05-07T00:16:54;8;8;
49914;PMS5003;35806;47.958;13.158;2023-05-07T00:19:21;6;6;
49914;PMS5003;35806;47.958;13.158;2023-05-07T00:21:49;8;8;
49914;PMS5003;35806;47.958;13.158;2023-05-07T00:24:16;9;9;
49914;PMS5003;35806;47.958;13.158;2023-05-07T00:26:44;8;7;
49914;PMS5003;35806;47.958;13.158;2023-05-07T00:29:12;13;9;
49914;PMS5003;35806;47.958;13.158;2023-05-07T00:31:40;10;10;
49914;PMS5003;35806;47.958;13.158;2023-05-07T00:34:07;7;7;
49914;PMS5003;35806;47.958;13.158;2023-05-07T00:36:34;10;10;
49914;PMS5003;35806;47.958;13.158;2023-05-07T00:39:02;9;9;
49914;PMS5003;35806;47.958;13.158;2023-05-07T00:41:30;10;9;
49914;PMS5003;35806;47.958;13.158;2023-05-07T00:43:57;8;8;
49914;PMS5003;35806;47.958;13.158;2023-05-07T00:46:25;12;12;
49914;PMS5003;35806;47.958;13.158;2023-05-07T00:48:52;10;10;
49914;PMS5003;35806;47.958;13.158;2023-05-07T00:51:21;6;6;
49914;PMS5003;35806;47.958;13.158;2023-05-07T00:53:50;8;8;
49914;PMS5003;35806;47.958;13.158;2023-05-07T00:56:18;7;7;
49914;PMS5003;35806;47.958;13.158;2023-05-07T00:58:45;8;8;
49914;PMS5003;35806;47.958;13.158;2023-05-07T01:15:50;7;7;
49914;PMS5003;35806;47.958;13.158;2023-05-07T01:18:18;11;10;
49914;PMS5003;35806;47.958;13.158;2023-05-07T01:20:46;7;7;
49914;PMS5003;35806;47.958;13.158;2023-05-07T01:23:13;7;7;
49914;PMS5003;35806;47.958;13.158;2023-05-07T01:25:41;13;9;
49914;PMS5003;35806;47.958;13.158;2023-05-07T01:28:08;9;8;
49914;PMS5003;35806;47.958;13.158;2023-05-07T01:30:36;8;7;
49914;PMS5003;35806;47.958;13.158;2023-05-07T01:33:09;10;9;
49914;PMS5003;35806;47.958;13.158;2023-05-07T01:35:40;10;10;
49914;PMS5003;35806;47.958;13.158;2023-05-07T01:38:10;8;8;
49914;PMS5003;35806;47.958;13.158;2023-05-07T01:40:38;10;8;
49914;PMS5003;35806;47.958;13.158;2023-05-07T01:43:06;9;9;
49914;PMS5003;35806;47.958;13.158;2023-05-07T01:45:34;11;11;
49914;PMS5003;35806;47.958;13.158;2023-05-07T01:48:02;9;9;
49914;PMS5003;35806;47.958;13.158;2023-05-07T01:50:30;8;8;
49914;PMS5003;35806;47.958;13.158;2023-05-07T01:52:58;11;9;
49914;PMS5003;35806;47.958;13.158;2023-05-07T01:55:26;12;11;
49914;PMS5003;35806;47.958;13.158;2023-05-07T01:57:53;8;8;
49914;PMS5003;35806;47.958;13.158;2023-05-07T02:00:21;12;12;
49914;PMS5003;35806;47.958;13.158;2023-05-07T02:02:48;11;11;
49914;PMS5003;35806;47.958;13.158;2023-05-07T02:05:15;12;11;
49914;PMS5003;35806;47.958;13.158;2023-05-07T02:07:43;10;10;
49914;PMS5003;35806;47.958;13.158;2023-05-07T02:10:10;10;10;
49914;PMS5003;35806;47.958;13.158;2023-05-07T02:12:37;14;14;
49914;PMS5003;35806;47.958;13.158;2023-05-07T02:15:04;11;11;
49914;PMS5003;35806;47.958;13.158;2023-05-07T02:17:32;14;11;
49914;PMS5003;35806;47.958;13.158;2023-05-07T02:20:00;10;9;
49914;PMS5003;35806;47.958;13.158;2023-05-07T02:22:27;12;10;
49914;PMS5003;35806;47.958;13.158;2023-05-07T02:24:54;11;10;
49914;PMS5003;35806;47.958;13.158;2023-05-07T02:27:27;10;10;
49914;PMS5003;35806;47.958;13.158;2023-05-07T02:29:54;10;10;
49914;PMS5003;35806;47.958;13.158;2023-05-07T02:32:22;9;9;
49914;PMS5003;35806;47.958;13.158;2023-05-07T02:34:50;10;9;
49914;PMS5003;35806;47.958;13.158;2023-05-07T02:37:17;8;8;
49914;PMS5003;35806;47.958;13.158;2023-05-07T02:39:45;8;8;
49914;PMS5003;35806;47.958;13.158;2023-05-07T02:42:12;9;8;
49914;PMS5003;35806;47.958;13.158;2023-05-07T02:44:39;9;8;
49914;PMS5003;35806;47.958;13.158;2023-05-07T02:47:06;8;8;
49914;PMS5003;35806;47.958;13.158;2023-05-07T02:49:33;7;7;
49914;PMS5003;35806;47.958;13.158;2023-05-07T02:52:00;9;9;
49914;PMS5003;35806;47.958;13.158;2023-05-07T02:54:27;9;7;
49914;PMS5003;35806;47.958;13.158;2023-05-07T02:56:54;8;8;
49914;PMS5003;35806;47.958;13.158;2023-05-07T02:59:21;8;8;
49914;PMS5003;35806;47.958;13.158;2023-05-07T03:01:49;7;7;
49914;PMS5003;35806;47.958;13.158;2023-05-07T03:04:16;7;7;
49914;PMS5003;35806;47.958;13.158;2023-05-07T03:06:44;9;9;
49914;PMS5003;35806;47.958;13.158;2023-05-07T03:09:11;7;7;
49914;PMS5003;35806;47.958;13.158;2023-05-07T03:11:39;11;11;
49914;PMS5003;35806;47.958;13.158;2023-05-07T03:14:07;8;8;
49914;PMS5003;35806;47.958;13.158;2023-05-07T03:16:34;10;10;
49914;PMS5003;35806;47.958;13.158;2023-05-07T03:19:02;8;8;
49914;PMS5003;35806;47.958;13.158;2023-05-07T03:21:29;12;11;
49914;PMS5003;35806;47.958;13.158;2023-05-07T03:23:56;6;6;
49914;PMS5003;35806;47.958;13.158;2023-05-07T03:26:24;8;7;
49914;PMS5003;35806;47.958;13.158;2023-05-07T03:28:52;8;7;
49914;PMS5003;35806;47.958;13.158;2023-05-07T03:31:19;6;6;
49914;PMS5003;35806;47.958;13.158;2023-05-07T03:33:50;9;9;
49914;PMS5003;35806;47.958;13.158;2023-05-07T03:36:18;13;13;
49914;PMS5003;35806;47.958;13.158;2023-05-07T03:38:45;9;9;
49914;PMS5003;35806;47.958;13.158;2023-05-07T03:41:14;9;9;
49914;PMS5003;35806;47.958;13.158;2023-05-07T03:43:41;9;9;
49914;PMS5003;35806;47.958;13.158;2023-05-07T03:46:09;10;10;
49914;PMS5003;35806;47.958;13.158;2023-05-07T03:48:36;8;8;
49914;PMS5003;35806;47.958;13.158;2023-05-07T03:51:04;11;11;
49914;PMS5003;35806;47.958;13.158;2023-05-07T03:53:32;9;9;
49914;PMS5003;35806;47.958;13.158;2023-05-07T03:55:58;9;8;
49914;PMS5003;35806;47.958;13.158;2023-05-07T03:58:26;9;8;
49914;PMS5003;35806;47.958;13.158;2023-05-07T04:00:54;9;9;
49914;PMS5003;35806;47.958;13.158;2023-05-07T04:03:21;10;10;
49914;PMS5003;35806;47.958;13.158;2023-05-07T04:05:49;7;7;
49914;PMS5003;35806;47.958;13.158;2023-05-07T04:08:16;12;12;
49914;PMS5003;35806;47.958;13.158;2023-05-07T04:10:50;6;5;
49914;PMS5003;35806;47.958;13.158;2023-05-07T04:13:21;6;6;
49914;PMS5003;35806;47.958;13.158;2023-05-07T04:15:48;7;7;
49914;PMS5003;35806;47.958;13.158;2023-05-07T04:18:15;7;7;
49914;PMS5003;35806;47.958;13.158;2023-05-07T04:20:43;5;5;
49914;PMS5003;35806;47.958;13.158;2023-05-07T04:23:11;7;7;
49914;PMS5003;35806;47.958;13.158;2023-05-07T04:25:38;7;7;
49914;PMS5003;35806;47.958;13.158;2023-05-07T04:28:06;11;10;
49914;PMS5003;35806;47.958;13.158;2023-05-07T04:30:33;11;10;
49914;PMS5003;35806;47.958;13.158;2023-05-07T04:33:01;6;6;
49914;PMS5003;35806;47.958;13.158;2023-05-07T04:35:28;7;7;
49914;PMS5003;35806;47.958;13.158;2023-05-07T04:37:56;8;8;
49914;PMS5003;35806;47.958;13.158;2023-05-07T04:40:23;9;9;
49914;PMS5003;35806;47.958;13.158;2023-05-07T04:42:51;9;7;
49914;PMS5003;35806;47.958;13.158;2023-05-07T04:45:19;9;9;
49914;PMS5003;35806;47.958;13.158;2023-05-07T04:47:46;9;9;
49914;PMS5003;35806;47.958;13.158;2023-05-07T04:50:14;11;11;
49914;PMS5003;35806;47.958;13.158;2023-05-07T04:52:41;10;9;
49914;PMS5003;35806;47.958;13.158;2023-05-07T04:55:09;14;9;
49914;PMS5003;35806;47.958;13.158;2023-05-07T04:57:36;10;10;
49914;PMS5003;35806;47.958;13.158;2023-05-07T05:00:05;12;11;
49914;PMS5003;35806;47.958;13.158;2023-05-07T05:02:33;11;11;
49914;PMS5003;35806;47.958;13.158;2023-05-07T05:05:01;11;10;
49914;PMS5003;35806;47.958;13.158;2023-05-07T05:07:28;12;11;
49914;PMS5003;35806;47.958;13.158;2023-05-07T05:09:56;12;12;
49914;PMS5003;35806;47.958;13.158;2023-05-07T05:12:23;11;11;
49914;PMS5003;35806;47.958;13.158;2023-05-07T05:14:50;13;13;
49914;PMS5003;35806;47.958;13.158;2023-05-07T05:17:18;9;9;
49914;PMS5003;35806;47.958;13.158;2023-05-07T05:19:46;13;11;
49914;PMS5003;35806;47.958;13.158;2023-05-07T05:22:13;8;7;
49914;PMS5003;35806;47.958;13.158;2023-05-07T05:24:41;13;13;
49914;PMS5003;35806;47.958;13.158;2023-05-07T05:27:08;11;11;
49914;PMS5003;35806;47.958;13.158;2023-05-07T05:29:37;10;10;
49914;PMS5003;35806;47.958;13.158;2023-05-07T05:32:05;14;14;
49914;PMS5003;35806;47.958;13.158;2023-05-07T05:34:33;9;9;
49914;PMS5003;35806;47.958;13.158;2023-05-07T05:37:00;13;11;
49914;PMS5003;35806;47.958;13.158;2023-05-07T05:39:28;10;9;
49914;PMS5003;35806;47.958;13.158;2023-05-07T05:41:55;14;13;
49914;PMS5003;35806;47.958;13.158;2023-05-07T05:44:23;12;11;
49914;PMS5003;35806;47.958;13.158;2023-05-07T05:46:49;9;9;
49914;PMS5003;35806;47.958;13.158;2023-05-07T05:49:17;12;11;
49914;PMS5003;35806;47.958;13.158;2023-05-07T05:51:44;13;12;
49914;PMS5003;35806;47.958;13.158;2023-05-07T05:54:12;11;11;
49914;PMS5003;35806;47.958;13.158;2023-05-07T05:56:41;13;12;
49914;PMS5003;35806;47.958;13.158;2023-05-07T05:59:09;11;11;
49914;PMS5003;35806;47.958;13.158;2023-05-07T06:01:36;13;11;
49914;PMS5003;35806;47.958;13.158;2023-05-07T06:04:04;12;12;
49914;PMS5003;35806;47.958;13.158;2023-05-07T06:06:31;13;11;
49914;PMS5003;35806;47.958;13.158;2023-05-07T06:08:59;14;12;
49914;PMS5003;35806;47.958;13.158;2023-05-07T06:11:27;17;16;
49914;PMS5003;35806;47.958;13.158;2023-05-07T06:13:54;13;13;
49914;PMS5003;35806;47.958;13.158;2023-05-07T06:16:21;15;15;
49914;PMS5003;35806;47.958;13.158;2023-05-07T06:18:48;20;20;
49914;PMS5003;35806;47.958;13.158;2023-05-07T06:21:16;19;19;
49914;PMS5003;35806;47.958;13.158;2023-05-07T06:23:44;23;20;
49914;PMS5003;35806;47.958;13.158;2023-05-07T06:26:10;20;18;
49914;PMS5003;35806;47.958;13.158;2023-05-07T06:28:38;22;21;
49914;PMS5003;35806;47.958;13.158;2023-05-07T06:31:13;21;20;
49914;PMS5003;35806;47.958;13.158;2023-05-07T06:33:40;21;20;
49914;PMS5003;35806;47.958;13.158;2023-05-07T06:36:07;26;26;
49914;PMS5003;35806;47.958;13.158;2023-05-07T06:38:35;30;27;
49914;PMS5003;35806;47.958;13.158;2023-05-07T06:41:02;25;23;
49914;PMS5003;35806;47.958;13.158;2023-05-07T06:43:30;25;25;
49914;PMS5003;35806;47.958;13.158;2023-05-07T06:45:57;29;27;
49914;PMS5003;35806;47.958;13.158;2023-05-07T06:48:24;25;23;
49914;PMS5003;35806;47.958;13.158;2023-05-07T06:50:51;32;31;
49914;PMS5003;35806;47.958;13.158;2023-05-07T06:53:18;29;28;
49914;PMS5003;35806;47.958;13.158;2023-05-07T06:55:45;29;29;
49914;PMS5003;35806;47.958;13.158;2023-05-07T06:58:13;31;31;
49914;PMS5003;35806;47.958;13.158;2023-05-07T07:00:40;30;29;
49914;PMS5003;35806;47.958;13.158;2023-05-07T07:03:07;27;25;
49914;PMS5003;35806;47.958;13.158;2023-05-07T07:05:35;25;22;
49914;PMS5003;35806;47.958;13.158;2023-05-07T07:08:02;22;21;
49914;PMS5003;35806;47.958;13.158;2023-05-07T07:10:30;21;20;
49914;PMS5003;35806;47.958;13.158;2023-05-07T07:12:57;25;22;
49914;PMS5003;35806;47.958;13.158;2023-05-07T07:15:25;23;21;
49914;PMS5003;35806;47.958;13.158;2023-05-07T07:17:53;23;23;
49914;PMS5003;35806;47.958;13.158;2023-05-07T07:20:20;20;19;
49914;PMS5003;35806;47.958;13.158;2023-05-07T07:22:47;21;21;
49914;PMS5003;35806;47.958;13.158;2023-05-07T07:25:15;20;20;
49914;PMS5003;35806;47.958;13.158;2023-05-07T07:27:42;23;23;
49914;PMS5003;35806;47.958;13.158;2023-05-07T07:30:10;19;19;
49914;PMS5003;35806;47.958;13.158;2023-05-07T07:32:42;17;17;
49914;PMS5003;35806;47.958;13.158;2023-05-07T07:35:10;23;23;
49914;PMS5003;35806;47.958;13.158;2023-05-07T07:37:37;23;23;
49914;PMS5003;35806;47.958;13.158;2023-05-07T07:40:04;28;26;
49914;PMS5003;35806;47.958;13.158;2023-05-07T07:42:33;27;27;
49914;PMS5003;35806;47.958;13.158;2023-05-07T07:45:01;26;24;
49914;PMS5003;35806;47.958;13.158;2023-05-07T07:47:33;23;23;
49914;PMS5003;35806;47.958;13.158;2023-05-07T07:50:00;27;27;
49914;PMS5003;35806;47.958;13.158;2023-05-07T07:52:27;22;22;
49914;PMS5003;35806;47.958;13.158;2023-05-07T07:54:55;21;19;
49914;PMS5003;35806;47.958;13.158;2023-05-07T07:57:22;25;24;
49914;PMS5003;35806;47.958;13.158;2023-05-07T07:59:49;27;24;
49914;PMS5003;35806;47.958;13.158;2023-05-07T08:02:17;25;23;
49914;PMS5003;35806;47.958;13.158;2023-05-07T08:04:45;22;21;
49914;PMS5003;35806;47.958;13.158;2023-05-07T08:07:12;23;22;
49914;PMS5003;35806;47.958;13.158;2023-05-07T08:09:40;19;18;
49914;PMS5003;35806;47.958;13.158;2023-05-07T08:12:07;26;25;
49914;PMS5003;35806;47.958;13.158;2023-05-07T08:14:35;27;24;
49914;PMS5003;35806;47.958;13.158;2023-05-07T08:17:03;21;21;
49914;PMS5003;35806;47.958;13.158;2023-05-07T08:19:30;22;20;
49914;PMS5003;35806;47.958;13.158;2023-05-07T08:21:57;19;19;
49914;PMS5003;35806;47.958;13.158;2023-05-07T08:24:25;23;20;
49914;PMS5003;35806;47.958;13.158;2023-05-07T08:26:52;24;22;
49914;PMS5003;35806;47.958;13.158;2023-05-07T08:29:19;21;20;
49914;PMS5003;35806;47.958;13.158;2023-05-07T08:31:47;21;20;
49914;PMS5003;35806;47.958;13.158;2023-05-07T08:34:15;22;22;
49914;PMS5003;35806;47.958;13.158;2023-05-07T08:36:42;25;22;
49914;PMS5003;35806;47.958;13.158;2023-05-07T08:39:10;22;22;
49914;PMS5003;35806;47.958;13.158;2023-05-07T08:41:37;24;24;
49914;PMS5003;35806;47.958;13.158;2023-05-07T08:44:04;24;24;
49914;PMS5003;35806;47.958;13.158;2023-05-07T08:46:38;24;23;
49914;PMS5003;35806;47.958;13.158;2023-05-07T08:49:07;24;22;
49914;PMS5003;35806;47.958;13.158;2023-05-07T08:51:35;23;23;
49914;PMS5003;35806;47.958;13.158;2023-05-07T08:54:03;21;21;
49914;PMS5003;35806;47.958;13.158;2023-05-07T08:56:32;19;18;
49914;PMS5003;35806;47.958;13.158;2023-05-07T08:59:00;30;25;
49914;PMS5003;35806;47.958;13.158;2023-05-07T09:01:27;19;19;
49914;PMS5003;35806;47.958;13.158;2023-05-07T09:03:54;20;17;
49914;PMS5003;35806;47.958;13.158;2023-05-07T09:06:22;16;16;
49914;PMS5003;35806;47.958;13.158;2023-05-07T09:08:50;19;17;
49914;PMS5003;35806;47.958;13.158;2023-05-07T09:11:19;20;20;
49914;PMS5003;35806;47.958;13.158;2023-05-07T09:13:47;16;15;
49914;PMS5003;35806;47.958;13.158;2023-05-07T09:16:19;21;20;
49914;PMS5003;35806;47.958;13.158;2023-05-07T09:18:50;17;17;
49914;PMS5003;35806;47.958;13.158;2023-05-07T09:21:19;18;17;
49914;PMS5003;35806;47.958;13.158;2023-05-07T09:23:47;19;19;
49914;PMS5003;35806;47.958;13.158;2023-05-07T09:26:17;14;14;
49914;PMS5003;35806;47.958;13.158;2023-05-07T09:28:44;15;15;
49914;PMS5003;35806;47.958;13.158;2023-05-07T09:31:11;17;16;
49914;PMS5003;35806;47.958;13.158;2023-05-07T09:33:39;15;13;
49914;PMS5003;35806;47.958;13.158;2023-05-07T09:36:07;18;18;
49914;PMS5003;35806;47.958;13.158;2023-05-07T09:38:36;16;14;
49914;PMS5003;35806;47.958;13.158;2023-05-07T09:41:05;14;14;
49914;PMS5003;35806;47.958;13.158;2023-05-07T09:43:34;15;15;
49914;PMS5003;35806;47.958;13.158;2023-05-07T09:46:03;17;15;
49914;PMS5003;35806;47.958;13.158;2023-05-07T09:48:35;15;15;
49914;PMS5003;35806;47.958;13.158;2023-05-07T09:51:06;20;20;
49914;PMS5003;35806;47.958;13.158;2023-05-07T09:53:38;19;19;
49914;PMS5003;35806;47.958;13.158;2023-05-07T09:56:07;20;19;
49914;PMS5003;35806;47.958;13.158;2023-05-07T09:58:36;20;19;
49914;PMS5003;35806;47.958;13.158;2023-05-07T10:01:08;11;11;
49914;PMS5003;35806;47.958;13.158;2023-05-07T10:03:37;14;14;
49914;PMS5003;35806;47.958;13.158;2023-05-07T10:06:08;14;14;
49914;PMS5003;35806;47.958;13.158;2023-05-07T10:08:41;16;16;
49914;PMS5003;35806;47.958;13.158;2023-05-07T10:11:20;15;14;
49914;PMS5003;35806;47.958;13.158;2023-05-07T10:13:49;19;18;
49914;PMS5003;35806;47.958;13.158;2023-05-07T10:16:18;13;13;
49914;PMS5003;35806;47.958;13.158;2023-05-07T10:18:48;14;12;
49914;PMS5003;35806;47.958;13.158;2023-05-07T10:21:18;12;12;
49914;PMS5003;35806;47.958;13.158;2023-05-07T10:23:48;12;12;
49914;PMS5003;35806;47.958;13.158;2023-05-07T10:26:18;10;10;
49914;PMS5003;35806;47.958;13.158;2023-05-07T10:28:49;13;12;
49914;PMS5003;35806;47.958;13.158;2023-05-07T10:31:26;10;10;
49914;PMS5003;35806;47.958;13.158;2023-05-07T10:34:12;9;9;
49914;PMS5003;35806;47.958;13.158;2023-05-07T10:36:45;10;10;
49914;PMS5003;35806;47.958;13.158;2023-05-07T10:39:13;13;13;
49914;PMS5003;35806;47.958;13.158;2023-05-07T10:41:40;13;13;
49914;PMS5003;35806;47.958;13.158;2023-05-07T10:44:07;9;9;
49914;PMS5003;35806;47.958;13.158;2023-05-07T10:46:35;14;13;
49914;PMS5003;35806;47.958;13.158;2023-05-07T10:49:06;13;13;
49914;PMS5003;35806;47.958;13.158;2023-05-07T10:51:34;13;13;
49914;PMS5003;35806;47.958;13.158;2023-05-07T10:54:33;17;17;
49914;PMS5003;35806;47.958;13.158;2023-05-07T10:57:12;10;10;
49914;PMS5003;35806;47.958;13.158;2023-05-07T11:00:00;16;15;
49914;PMS5003;35806;47.958;13.158;2023-05-07T11:03:04;15;13;
49914;PMS5003;35806;47.958;13.158;2023-05-07T11:05:32;11;11;
49914;PMS5003;35806;47.958;13.158;2023-05-07T11:08:05;11;11;
49914;PMS5003;35806;47.958;13.158;2023-05-07T11:10:49;9;8;
49914;PMS5003;35806;47.958;13.158;2023-05-07T11:13:18;15;15;
49914;PMS5003;35806;47.958;13.158;2023-05-07T11:16:17;11;11;
49914;PMS5003;35806;47.958;13.158;2023-05-07T11:18:46;10;10;
49914;PMS5003;35806;47.958;13.158;2023-05-07T11:21:20;10;10;
49914;PMS5003;35806;47.958;13.158;2023-05-07T11:23:59;13;13;
49914;PMS5003;35806;47.958;13.158;2023-05-07T11:26:28;12;11;
49914;PMS5003;35806;47.958;13.158;2023-05-07T11:28:56;12;12;
49914;PMS5003;35806;47.958;13.158;2023-05-07T11:31:24;13;12;
49914;PMS5003;35806;47.958;13.158;2023-05-07T11:33:54;12;11;
49914;PMS5003;35806;47.958;13.158;2023-05-07T11:36:22;15;15;
49914;PMS5003;35806;47.958;13.158;2023-05-07T11:38:49;11;11;
49914;PMS5003;35806;47.958;13.158;2023-05-07T11:41:17;11;11;
49914;PMS5003;35806;47.958;13.158;2023-05-07T11:44:00;12;12;
49914;PMS5003;35806;47.958;13.158;2023-05-07T11:46:28;9;9;
49914;PMS5003;35806;47.958;13.158;2023-05-07T11:48:56;6;6;
49914;PMS5003;35806;47.958;13.158;2023-05-07T11:51:24;13;13;
49914;PMS5003;35806;47.958;13.158;2023-05-07T11:53:52;11;9;
49914;PMS5003;35806;47.958;13.158;2023-05-07T11:56:19;10;9;
49914;PMS5003;35806;47.958;13.158;2023-05-07T11:58:52;14;13;
49914;PMS5003;35806;47.958;13.158;2023-05-07T12:01:19;10;9;
49914;PMS5003;35806;47.958;13.158;2023-05-07T12:03:47;10;10;
49914;PMS5003;35806;47.958;13.158;2023-05-07T12:06:16;12;11;
49914;PMS5003;35806;47.958;13.158;2023-05-07T12:08:44;11;11;
49914;PMS5003;35806;47.958;13.158;2023-05-07T12:11:13;11;11;
49914;PMS5003;35806;47.958;13.158;2023-05-07T12:13:42;10;9;
49914;PMS5003;35806;47.958;13.158;2023-05-07T12:16:09;12;12;
49914;PMS5003;35806;47.958;13.158;2023-05-07T12:18:37;10;10;
49914;PMS5003;35806;47.958;13.158;2023-05-07T12:21:05;13;12;
49914;PMS5003;35806;47.958;13.158;2023-05-07T12:23:33;10;10;
49914;PMS5003;35806;47.958;13.158;2023-05-07T12:26:02;10;9;
49914;PMS5003;35806;47.958;13.158;2023-05-07T12:28:30;10;10;
49914;PMS5003;35806;47.958;13.158;2023-05-07T12:31:02;15;15;
49914;PMS5003;35806;47.958;13.158;2023-05-07T12:33:30;13;13;
49914;PMS5003;35806;47.958;13.158;2023-05-07T12:35:57;12;12;
49914;PMS5003;35806;47.958;13.158;2023-05-07T12:38:25;15;15;
49914;PMS5003;35806;47.958;13.158;2023-05-07T12:40:53;11;11;
49914;PMS5003;35806;47.958;13.158;2023-05-07T12:43:21;16;14;
49914;PMS5003;35806;47.958;13.158;2023-05-07T12:45:51;16;15;
49914;PMS5003;35806;47.958;13.158;2023-05-07T12:48:22;14;13;
49914;PMS5003;35806;47.958;13.158;2023-05-07T12:50:50;15;15;
49914;PMS5003;35806;47.958;13.158;2023-05-07T12:53:20;14;14;
49914;PMS5003;35806;47.958;13.158;2023-05-07T12:55:49;17;15;
49914;PMS5003;35806;47.958;13.158;2023-05-07T12:58:18;14;13;
49914;PMS5003;35806;47.958;13.158;2023-05-07T13:00:47;14;14;
49914;PMS5003;35806;47.958;13.158;2023-05-07T13:03:32;13;13;
49914;PMS5003;35806;47.958;13.158;2023-05-07T13:06:00;12;12;
49914;PMS5003;35806;47.958;13.158;2023-05-07T13:08:30;13;13;
49914;PMS5003;35806;47.958;13.158;2023-05-07T13:10:59;17;16;
49914;PMS5003;35806;47.958;13.158;2023-05-07T13:13:26;12;12;
49914;PMS5003;35806;47.958;13.158;2023-05-07T13:15:54;13;13;
49914;PMS5003;35806;47.958;13.158;2023-05-07T13:18:23;13;13;
49914;PMS5003;35806;47.958;13.158;2023-05-07T13:20:51;12;12;
49914;PMS5003;35806;47.958;13.158;2023-05-07T13:23:18;17;15;
49914;PMS5003;35806;47.958;13.158;2023-05-07T13:25:46;15;15;
49914;PMS5003;35806;47.958;13.158;2023-05-07T13:28:14;13;13;
49914;PMS5003;35806;47.958;13.158;2023-05-07T13:30:41;11;10;
49914;PMS5003;35806;47.958;13.158;2023-05-07T13:33:09;14;13;
49914;PMS5003;35806;47.958;13.158;2023-05-07T13:35:36;16;16;
49914;PMS5003;35806;47.958;13.158;2023-05-07T13:38:03;12;12;
49914;PMS5003;35806;47.958;13.158;2023-05-07T13:40:30;14;14;
49914;PMS5003;35806;47.958;13.158;2023-05-07T13:42:58;15;12;
49914;PMS5003;35806;47.958;13.158;2023-05-07T13:45:26;12;12;
49914;PMS5003;35806;47.958;13.158;2023-05-07T13:47:53;14;14;
49914;PMS5003;35806;47.958;13.158;2023-05-07T13:50:21;11;11;
49914;PMS5003;35806;47.958;13.158;2023-05-07T13:52:54;16;16;
49914;PMS5003;35806;47.958;13.158;2023-05-07T13:55:23;11;11;
49914;PMS5003;35806;47.958;13.158;2023-05-07T13:57:56;15;12;
49914;PMS5003;35806;47.958;13.158;2023-05-07T14:00:25;9;9;
49914;PMS5003;35806;47.958;13.158;2023-05-07T14:02:53;12;11;
49914;PMS5003;35806;47.958;13.158;2023-05-07T14:05:20;11;11;
49914;PMS5003;35806;47.958;13.158;2023-05-07T14:07:48;10;9;
49914;PMS5003;35806;47.958;13.158;2023-05-07T14:10:16;12;12;
49914;PMS5003;35806;47.958;13.158;2023-05-07T14:12:44;13;11;
49914;PMS5003;35806;47.958;13.158;2023-05-07T14:15:11;9;8;
49914;PMS5003;35806;47.958;13.158;2023-05-07T14:17:38;9;9;
49914;PMS5003;35806;47.958;13.158;2023-05-07T14:20:07;8;8;
49914;PMS5003;35806;47.958;13.158;2023-05-07T14:22:36;10;8;
49914;PMS5003;35806;47.958;13.158;2023-05-07T14:25:04;8;8;
49914;PMS5003;35806;47.958;13.158;2023-05-07T14:27:32;9;9;
49914;PMS5003;35806;47.958;13.158;2023-05-07T14:29:59;8;8;
49914;PMS5003;35806;47.958;13.158;2023-05-07T14:32:27;10;10;
49914;PMS5003;35806;47.958;13.158;2023-05-07T14:34:54;9;9;
49914;PMS5003;35806;47.958;13.158;2023-05-07T14:37:23;9;9;
49914;PMS5003;35806;47.958;13.158;2023-05-07T14:39:50;10;9;
49914;PMS5003;35806;47.958;13.158;2023-05-07T14:42:17;8;8;
49914;PMS5003;35806;47.958;13.158;2023-05-07T14:44:45;11;10;
49914;PMS5003;35806;47.958;13.158;2023-05-07T14:47:12;8;8;
49914;PMS5003;35806;47.958;13.158;2023-05-07T14:49:40;9;9;
49914;PMS5003;35806;47.958;13.158;2023-05-07T14:52:07;8;8;
49914;PMS5003;35806;47.958;13.158;2023-05-07T14:54:35;8;8;
49914;PMS5003;35806;47.958;13.158;2023-05-07T14:57:04;9;8;
49914;PMS5003;35806;47.958;13.158;2023-05-07T14:59:32;9;9;
49914;PMS5003;35806;47.958;13.158;2023-05-07T15:01:59;9;9;
49914;PMS5003;35806;47.958;13.158;2023-05-07T15:04:26;7;7;
49914;PMS5003;35806;47.958;13.158;2023-05-07T15:06:54;11;11;
49914;PMS5003;35806;47.958;13.158;2023-05-07T15:09:21;12;10;
49914;PMS5003;35806;47.958;13.158;2023-05-07T15:11:49;8;8;
49914;PMS5003;35806;47.958;13.158;2023-05-07T15:14:17;10;8;
49914;PMS5003;35806;47.958;13.158;2023-05-07T15:16:44;9;9;
49914;PMS5003;35806;47.958;13.158;2023-05-07T15:19:12;10;9;
49914;PMS5003;35806;47.958;13.158;2023-05-07T15:21:39;10;9;
49914;PMS5003;35806;47.958;13.158;2023-05-07T15:24:07;10;9;
49914;PMS5003;35806;47.958;13.158;2023-05-07T15:26:34;10;10;
49914;PMS5003;35806;47.958;13.158;2023-05-07T15:29:02;7;7;
49914;PMS5003;35806;47.958;13.158;2023-05-07T15:31:29;8;8;
49914;PMS5003;35806;47.958;13.158;2023-05-07T15:33:57;9;9;
49914;PMS5003;35806;47.958;13.158;2023-05-07T15:36:26;9;9;
49914;PMS5003;35806;47.958;13.158;2023-05-07T15:38:53;10;8;
49914;PMS5003;35806;47.958;13.158;2023-05-07T15:41:21;9;9;
49914;PMS5003;35806;47.958;13.158;2023-05-07T15:43:53;9;8;
49914;PMS5003;35806;47.958;13.158;2023-05-07T15:46:22;10;9;
49914;PMS5003;35806;47.958;13.158;2023-05-07T15:48:51;8;8;
49914;PMS5003;35806;47.958;13.158;2023-05-07T15:51:19;10;10;
49914;PMS5003;35806;47.958;13.158;2023-05-07T15:53:47;10;10;
49914;PMS5003;35806;47.958;13.158;2023-05-07T15:56:16;13;8;
49914;PMS5003;35806;47.958;13.158;2023-05-07T15:58:43;11;11;
49914;PMS5003;35806;47.958;13.158;2023-05-07T16:01:11;11;10;
49914;PMS5003;35806;47.958;13.158;2023-05-07T16:03:39;13;12;
49914;PMS5003;35806;47.958;13.158;2023-05-07T16:06:09;10;10;
49914;PMS5003;35806;47.958;13.158;2023-05-07T16:08:36;11;10;
49914;PMS5003;35806;47.958;13.158;2023-05-07T16:11:04;10;10;
49914;PMS5003;35806;47.958;13.158;2023-05-07T16:13:31;9;7;
49914;PMS5003;35806;47.958;13.158;2023-05-07T16:16:01;9;9;
49914;PMS5003;35806;47.958;13.158;2023-05-07T16:18:28;10;10;
49914;PMS5003;35806;47.958;13.158;2023-05-07T16:20:56;13;11;
49914;PMS5003;35806;47.958;13.158;2023-05-07T16:23:23;14;11;
49914;PMS5003;35806;47.958;13.158;2023-05-07T16:25:51;11;9;
49914;PMS5003;35806;47.958;13.158;2023-05-07T16:28:18;9;9;
49914;PMS5003;35806;47.958;13.158;2023-05-07T16:30:46;9;9;
49914;PMS5003;35806;47.958;13.158;2023-05-07T16:33:13;9;9;
49914;PMS5003;35806;47.958;13.158;2023-05-07T16:35:50;11;11;